createdAt,value
2023-03-29T00:00:30.464Z,2.20
2023-03-29T00:02:33.580Z,3.30
2023-03-29T00:04:36.873Z,2.33
2023-03-29T00:06:42.104Z,2.30
2023-03-29T00:08:46.451Z,2.43
2023-03-29T00:10:51.941Z,2.63
2023-03-29T00:12:55.857Z,2.47
2023-03-29T00:14:59.026Z,2.50
2023-03-29T00:17:02.002Z,2.53
2023-03-29T00:19:05.781Z,2.40
2023-03-29T00:21:09.485Z,2.40
2023-03-29T00:23:12.538Z,2.43
2023-03-29T00:25:17.368Z,2.40
2023-03-29T00:27:20.653Z,2.20
2023-03-29T00:29:23.901Z,2.50
2023-03-29T00:31:28.599Z,2.27
2023-03-29T00:33:32.948Z,2.80
2023-03-29T00:35:35.992Z,2.20
2023-03-29T00:37:39.684Z,2.20
2023-03-29T00:39:42.631Z,2.30
2023-03-29T00:41:47.825Z,2.73
2023-03-29T00:43:53.525Z,2.27
2023-03-29T00:45:56.509Z,2.80
2023-03-29T00:48:02.634Z,2.50
2023-03-29T00:50:10.803Z,2.37
2023-03-29T00:52:15.183Z,2.30
2023-03-29T00:54:19.844Z,3.00
2023-03-29T00:56:24.989Z,2.33
2023-03-29T00:58:33.454Z,2.77
2023-03-29T01:00:38.960Z,2.40
2023-03-29T01:02:43.626Z,2.30
2023-03-29T01:04:50.549Z,2.10
2023-03-29T01:06:57.603Z,2.13
2023-03-29T01:09:02.557Z,2.00
2023-03-29T01:11:11.894Z,2.37
2023-03-29T01:13:26.205Z,2.33
2023-03-29T01:15:31.093Z,2.57
2023-03-29T01:17:34.399Z,3.00
2023-03-29T01:19:39.926Z,2.70
2023-03-29T01:21:46.215Z,2.30
2023-03-29T01:24:24.942Z,2.30
2023-03-29T01:26:32.724Z,2.40
2023-03-29T01:28:39.202Z,2.30
2023-03-29T01:30:46.658Z,1.90
2023-03-29T01:32:55.526Z,1.80
2023-03-29T01:35:01.523Z,2.50
2023-03-29T01:37:08.569Z,2.00
2023-03-29T01:39:11.905Z,2.30
2023-03-29T01:41:15.007Z,1.77
2023-03-29T01:43:26.264Z,2.20
2023-03-29T01:45:35.782Z,1.90
2023-03-29T01:47:46.564Z,1.97
2023-03-29T01:49:56.356Z,1.80
2023-03-29T01:52:01.654Z,1.90
2023-03-29T01:54:06.481Z,2.47
2023-03-29T01:56:13.334Z,1.97
2023-03-29T01:58:18.790Z,2.20
2023-03-29T02:00:24.788Z,2.40
2023-03-29T02:02:30.719Z,1.93
2023-03-29T02:04:35.689Z,1.63
2023-03-29T02:06:39.687Z,2.00
2023-03-29T02:08:43.349Z,2.00
2023-03-29T02:10:46.756Z,1.80
2023-03-29T02:12:50.610Z,1.87
2023-03-29T02:14:54.084Z,2.07
2023-03-29T02:16:57.216Z,2.43
2023-03-29T02:19:01.593Z,1.90
2023-03-29T02:21:04.806Z,1.83
2023-03-29T02:23:12.534Z,2.00
2023-03-29T02:25:16.950Z,2.17
2023-03-29T02:27:20.123Z,1.70
2023-03-29T02:29:23.069Z,2.50
2023-03-29T02:31:30.445Z,2.07
2023-03-29T02:33:39.706Z,1.93
2023-03-29T02:35:48.653Z,1.70
2023-03-29T02:37:54.463Z,2.60
2023-03-29T02:39:58.964Z,2.07
2023-03-29T02:42:03.398Z,1.80
2023-03-29T02:44:07.519Z,2.33
2023-03-29T02:46:12.154Z,2.00
2023-03-29T02:48:19.473Z,1.73
2023-03-29T02:50:23.092Z,2.07
2023-03-29T02:52:30.034Z,2.07
2023-03-29T02:54:33.173Z,2.07
2023-03-29T02:56:43.293Z,1.80
2023-03-29T02:58:46.258Z,1.80
2023-03-29T03:00:50.382Z,2.53
2023-03-29T03:02:55.192Z,2.37
2023-03-29T03:04:59.229Z,1.93
2023-03-29T03:07:02.433Z,2.00
2023-03-29T03:09:07.658Z,2.17
2023-03-29T03:11:13.462Z,1.80
2023-03-29T03:13:16.608Z,2.20
2023-03-29T03:15:20.204Z,2.10
2023-03-29T03:17:23.444Z,1.77
2023-03-29T03:19:26.836Z,2.23
2023-03-29T03:21:29.807Z,1.90
2023-03-29T03:23:33.409Z,1.90
2023-03-29T03:25:37.802Z,2.17
2023-03-29T03:27:41.466Z,2.30
2023-03-29T03:29:44.735Z,2.13
2023-03-29T03:32:23.281Z,2.23
2023-03-29T03:34:55.157Z,2.60
2023-03-29T03:37:01.901Z,1.67
2023-03-29T03:39:08.111Z,1.70
2023-03-29T03:41:12.979Z,2.17
2023-03-29T03:43:16.421Z,1.90
2023-03-29T03:45:22.513Z,2.20
2023-03-29T03:47:29.268Z,2.10
2023-03-29T03:49:37.531Z,2.40
2023-03-29T03:51:42.065Z,2.40
2023-03-29T03:53:45.753Z,1.97
2023-03-29T03:55:49.397Z,1.60
2023-03-29T03:57:59.397Z,1.87
2023-03-29T04:00:09.692Z,2.40
2023-03-29T04:02:15.848Z,1.90
2023-03-29T04:04:20.960Z,2.00
2023-03-29T04:06:53.417Z,1.90
2023-03-29T04:09:09.187Z,1.70
2023-03-29T04:11:16.507Z,1.83
2023-03-29T04:13:21.700Z,2.07
2023-03-29T04:15:43.438Z,1.93
2023-03-29T04:17:48.707Z,1.63
2023-03-29T04:20:06.891Z,1.60
2023-03-29T04:22:10.407Z,2.43
2023-03-29T04:24:14.104Z,1.97
2023-03-29T04:26:21.049Z,1.80
2023-03-29T04:28:29.014Z,2.17
2023-03-29T04:30:42.660Z,2.20
2023-03-29T04:32:50.788Z,1.90
2023-03-29T04:34:54.896Z,1.97
2023-03-29T04:36:58.967Z,2.63
2023-03-29T04:39:02.266Z,2.33
2023-03-29T04:41:08.785Z,2.20
2023-03-29T04:43:24.536Z,2.13
2023-03-29T04:45:38.418Z,1.97
2023-03-29T04:48:01.452Z,2.20
2023-03-29T04:50:04.752Z,2.03
2023-03-29T04:52:15.670Z,2.50
2023-03-29T04:54:19.526Z,2.50
2023-03-29T04:56:42.165Z,2.70
2023-03-29T04:59:23.367Z,2.57
2023-03-29T05:01:29.063Z,2.67
2023-03-29T05:03:35.707Z,2.77
2023-03-29T05:05:51.244Z,2.20
2023-03-29T05:07:55.045Z,3.03
2023-03-29T05:10:03.439Z,2.20
2023-03-29T05:12:06.982Z,2.47
2023-03-29T05:14:23.376Z,2.20
2023-03-29T05:16:30.030Z,2.70
2023-03-29T05:18:34.192Z,3.07
2023-03-29T05:20:37.922Z,2.67
2023-03-29T05:22:41.207Z,3.20
2023-03-29T05:24:47.154Z,2.60
2023-03-29T05:26:53.548Z,2.67
2023-03-29T05:28:57.665Z,2.50
2023-03-29T05:31:02.352Z,3.57
2023-03-29T05:33:07.176Z,3.43
2023-03-29T05:35:11.969Z,3.73
2023-03-29T05:37:15.515Z,2.87
2023-03-29T05:39:26.562Z,3.80
2023-03-29T05:41:30.072Z,3.33
2023-03-29T05:43:54.278Z,3.60
2023-03-29T05:46:00.656Z,2.80
2023-03-29T05:48:08.879Z,2.70
2023-03-29T05:50:14.517Z,2.27
2023-03-29T05:52:18.532Z,3.50
2023-03-29T05:54:21.923Z,3.43
2023-03-29T05:56:25.872Z,3.23
2023-03-29T05:58:30.791Z,4.13
2023-03-29T06:00:37.172Z,3.03
2023-03-29T06:03:19.972Z,2.73
2023-03-29T06:05:24.283Z,3.40
2023-03-29T06:07:38.271Z,3.23
2023-03-29T06:10:12.085Z,3.50
2023-03-29T06:12:20.162Z,3.00
2023-03-29T06:14:33.940Z,3.20
2023-03-29T06:16:47.071Z,3.00
2023-03-29T06:18:52.217Z,3.77
2023-03-29T06:20:55.505Z,3.90
2023-03-29T06:22:59.589Z,3.07
2023-03-29T06:25:02.897Z,3.20
2023-03-29T06:27:09.357Z,4.40
2023-03-29T06:29:12.880Z,3.80
2023-03-29T06:31:17.954Z,3.47
2023-03-29T06:33:21.549Z,3.80
2023-03-29T06:35:31.770Z,3.80
2023-03-29T06:37:49.280Z,3.57
2023-03-29T06:40:17.576Z,4.10
2023-03-29T06:42:21.909Z,3.30
2023-03-29T06:44:47.988Z,3.53
2023-03-29T06:46:55.950Z,3.50
2023-03-29T06:48:59.690Z,3.80
2023-03-29T06:51:12.454Z,3.30
2023-03-29T06:53:16.986Z,3.60
2023-03-29T06:55:26.038Z,3.47
2023-03-29T06:57:32.038Z,3.70
2023-03-29T06:59:36.463Z,3.67
2023-03-29T07:02:00.624Z,3.70
2023-03-29T07:04:32.900Z,3.57
2023-03-29T07:07:01.575Z,4.00
2023-03-29T07:09:06.660Z,4.27
2023-03-29T07:11:39.259Z,3.83
2023-03-29T07:13:58.840Z,3.37
2023-03-29T07:16:02.538Z,3.27
2023-03-29T07:18:32.137Z,3.10
2023-03-29T07:20:35.623Z,3.70
2023-03-29T07:22:44.875Z,3.90
2023-03-29T07:24:49.524Z,2.90
2023-03-29T07:27:03.108Z,3.17
2023-03-29T07:29:09.288Z,2.87
2023-03-29T07:31:13.415Z,3.70
2023-03-29T07:33:21.752Z,3.13
2023-03-29T07:35:28.592Z,3.40
2023-03-29T07:37:31.963Z,3.13
2023-03-29T07:39:37.268Z,3.77
2023-03-29T07:41:59.065Z,3.37
2023-03-29T07:44:04.993Z,4.00
2023-03-29T07:46:10.187Z,2.80
2023-03-29T07:48:14.594Z,2.90
2023-03-29T07:50:35.874Z,2.87
2023-03-29T07:52:40.686Z,3.67
2023-03-29T07:54:45.356Z,3.30
2023-03-29T07:57:17.611Z,3.47
2023-03-29T07:59:27.478Z,3.10
2023-03-29T08:01:51.999Z,2.93
2023-03-29T08:04:04.815Z,3.33
2023-03-29T08:06:27.722Z,3.30
2023-03-29T08:08:30.970Z,3.00
2023-03-29T08:10:40.454Z,3.50
2023-03-29T08:13:06.130Z,2.90
2023-03-29T08:15:31.114Z,3.33
2023-03-29T08:17:34.940Z,2.47
2023-03-29T08:19:38.824Z,3.10
2023-03-29T08:21:44.317Z,2.70
2023-03-29T08:23:47.288Z,2.70
2023-03-29T08:25:56.626Z,2.90
2023-03-29T08:28:00.256Z,3.50
2023-03-29T08:30:16.061Z,2.70
2023-03-29T08:32:20.130Z,2.97
2023-03-29T08:34:23.547Z,3.00
2023-03-29T08:36:52.578Z,3.20
2023-03-29T08:39:03.422Z,2.80
2023-03-29T08:41:25.519Z,2.67
2023-03-29T08:43:49.493Z,2.70
2023-03-29T08:46:33.078Z,3.13
2023-03-29T08:48:49.034Z,3.00
2023-03-29T08:50:58.490Z,2.93
2023-03-29T08:53:04.760Z,2.63
2023-03-29T08:55:32.081Z,2.77
2023-03-29T08:57:56.786Z,2.00
2023-03-29T09:00:10.678Z,2.30
2023-03-29T09:02:18.927Z,2.67
2023-03-29T09:04:28.557Z,2.70
2023-03-29T09:06:40.760Z,2.60
2023-03-29T09:08:53.850Z,2.43
2023-03-29T09:11:17.323Z,2.87
2023-03-29T09:13:31.277Z,2.60
2023-03-29T09:15:38.908Z,2.30
2023-03-29T09:18:03.189Z,2.30
2023-03-29T09:20:15.392Z,2.47
2023-03-29T09:22:23.622Z,2.50
2023-03-29T09:24:37.480Z,2.30
2023-03-29T09:26:49.799Z,3.67
2023-03-29T09:29:13.636Z,2.50
2023-03-29T09:31:22.969Z,2.87
2023-03-29T09:33:27.741Z,2.97
2023-03-29T09:35:49.646Z,2.50
2023-03-29T09:37:53.922Z,2.90
2023-03-29T09:39:57.698Z,3.10
2023-03-29T09:42:14.216Z,2.83
2023-03-29T09:44:30.138Z,3.30
2023-03-29T09:46:41.028Z,3.63
2023-03-29T09:48:45.906Z,3.43
2023-03-29T09:50:51.619Z,3.30
2023-03-29T09:52:55.427Z,3.73
2023-03-29T09:55:04.558Z,2.93
2023-03-29T09:57:20.250Z,3.50
2023-03-29T09:59:25.759Z,3.00
2023-03-29T10:01:37.213Z,3.73
2023-03-29T10:03:42.236Z,2.80
2023-03-29T10:05:48.624Z,3.43
2023-03-29T10:07:55.588Z,3.60
2023-03-29T10:09:58.803Z,2.90
2023-03-29T10:12:03.521Z,2.80
2023-03-29T10:14:13.736Z,3.63
2023-03-29T10:16:23.062Z,3.23
2023-03-29T10:18:27.066Z,3.20
2023-03-29T10:20:31.045Z,3.47
2023-03-29T10:22:37.476Z,3.20
2023-03-29T10:24:40.519Z,2.97
2023-03-29T10:26:43.558Z,2.67
2023-03-29T10:28:46.585Z,3.17
2023-03-29T10:30:55.208Z,2.50
2023-03-29T10:33:00.993Z,2.60
2023-03-29T10:35:10.732Z,3.03
2023-03-29T10:37:16.749Z,2.97
2023-03-29T10:39:20.324Z,2.90
2023-03-29T10:41:24.230Z,2.93
2023-03-29T10:43:29.554Z,3.57
2023-03-29T10:45:36.514Z,3.07
2023-03-29T10:47:39.541Z,2.40
2023-03-29T10:49:47.970Z,2.53
2023-03-29T10:51:51.596Z,2.77
2023-03-29T10:53:54.567Z,4.10
2023-03-29T10:56:07.598Z,2.40
2023-03-29T10:58:25.519Z,2.20
2023-03-29T11:00:33.785Z,3.17
2023-03-29T11:02:52.314Z,2.30
2023-03-29T11:05:12.032Z,3.20
2023-03-29T11:07:28.805Z,2.77
2023-03-29T11:09:43.797Z,3.03
2023-03-29T11:12:15.698Z,2.67
2023-03-29T11:14:27.270Z,3.17
2023-03-29T11:16:34.219Z,2.20
2023-03-29T11:19:11.928Z,2.87
2023-03-29T11:21:23.697Z,2.23
2023-03-29T11:23:37.518Z,2.93
2023-03-29T11:25:47.459Z,2.60
2023-03-29T11:27:55.583Z,2.70
2023-03-29T11:30:08.800Z,2.70
2023-03-29T11:32:16.314Z,2.80
2023-03-29T11:34:27.640Z,2.50
2023-03-29T11:36:39.809Z,2.37
2023-03-29T11:38:49.440Z,2.63
2023-03-29T11:40:59.556Z,2.73
2023-03-29T11:43:05.801Z,2.43
2023-03-29T11:45:14.578Z,2.50
2023-03-29T11:47:22.053Z,2.33
2023-03-29T11:49:28.042Z,2.97
2023-03-29T11:51:37.524Z,2.38
2023-03-29T11:53:48.850Z,2.38
2023-03-29T11:55:53.907Z,1.95
2023-03-29T11:57:58.083Z,2.95
2023-03-29T12:00:05.567Z,2.40
2023-03-29T12:02:21.097Z,3.50
2023-03-29T12:04:28.813Z,2.90
2023-03-29T12:06:37.350Z,2.63
2023-03-29T12:08:43.416Z,2.72
2023-03-29T12:10:49.593Z,2.10
2023-03-29T12:12:58.601Z,2.10
2023-03-29T12:15:05.069Z,2.58
2023-03-29T12:17:12.802Z,2.97
2023-03-29T12:19:18.743Z,2.60
2023-03-29T12:21:23.244Z,2.03
2023-03-29T12:23:31.397Z,2.58
2023-03-29T12:25:41.667Z,2.35
2023-03-29T12:27:49.969Z,2.90
2023-03-29T12:30:17.764Z,2.55
2023-03-29T12:32:43.204Z,2.45
2023-03-29T12:35:25.305Z,2.58
2023-03-29T12:37:48.440Z,2.90
2023-03-29T12:40:17.052Z,2.67
2023-03-29T12:42:46.136Z,2.70
2023-03-29T12:45:21.241Z,2.75
2023-03-29T12:47:25.937Z,2.25
2023-03-29T12:49:32.813Z,2.58
2023-03-29T12:51:37.218Z,2.72
2023-03-29T12:53:41.065Z,2.75
2023-03-29T12:55:56.877Z,2.20
2023-03-29T12:58:03.701Z,2.60
2023-03-29T13:00:20.060Z,2.40
2023-03-29T13:02:34.916Z,2.83
2023-03-29T13:04:49.775Z,2.40
2023-03-29T13:07:04.590Z,2.55
2023-03-29T13:09:22.057Z,2.33
2023-03-29T13:11:29.406Z,2.50
2023-03-29T13:13:34.824Z,2.92
2023-03-29T13:15:38.581Z,2.75
2023-03-29T13:17:48.335Z,2.22
2023-03-29T13:19:54.543Z,2.95
2023-03-29T13:22:06.084Z,2.85
2023-03-29T13:24:26.201Z,2.30
2023-03-29T13:26:42.692Z,2.30
2023-03-29T13:29:02.674Z,2.75
2023-03-29T13:31:08.627Z,2.70
2023-03-29T13:33:23.379Z,2.47
2023-03-29T13:35:35.927Z,2.47
2023-03-29T13:37:43.252Z,2.97
2023-03-29T13:39:50.519Z,2.65
2023-03-29T13:42:23.879Z,2.65
2023-03-29T13:44:41.375Z,3.35
2023-03-29T13:46:45.618Z,2.30
2023-03-29T13:48:53.948Z,2.60
2023-03-29T13:50:58.429Z,2.90
2023-03-29T13:53:06.044Z,2.92
2023-03-29T13:55:16.955Z,2.53
2023-03-29T13:57:24.097Z,2.85
2023-03-29T13:59:33.278Z,2.65
2023-03-29T14:01:40.525Z,2.75
2023-03-29T14:03:45.758Z,2.90
2023-03-29T14:05:50.903Z,2.55
2023-03-29T14:07:54.849Z,3.08
2023-03-29T14:09:59.905Z,3.05
2023-03-29T14:12:03.105Z,2.90
2023-03-29T14:14:08.560Z,3.08
2023-03-29T14:16:13.761Z,3.13
2023-03-29T14:18:18.972Z,3.22
2023-03-29T14:20:21.969Z,2.63
2023-03-29T14:22:25.164Z,2.67
2023-03-29T14:24:35.568Z,2.92
2023-03-29T14:26:40.465Z,2.65
2023-03-29T14:28:46.980Z,2.78
2023-03-29T14:30:52.827Z,2.70
2023-03-29T14:32:56.890Z,2.78
2023-03-29T14:35:01.904Z,2.80
2023-03-29T14:37:05.795Z,2.40
2023-03-29T14:39:13.123Z,2.63
2023-03-29T14:41:16.354Z,2.33
2023-03-29T14:43:22.123Z,2.75
2023-03-29T14:45:25.408Z,2.42
2023-03-29T14:47:31.061Z,2.78
2023-03-29T14:49:34.506Z,2.05
2023-03-29T14:51:40.567Z,2.00
2023-03-29T14:53:43.790Z,2.50
2023-03-29T14:55:50.320Z,3.22
2023-03-29T14:57:55.987Z,2.03
2023-03-29T15:00:01.580Z,2.47
2023-03-29T15:02:04.966Z,2.78
2023-03-29T15:04:11.031Z,2.40
2023-03-29T15:06:15.752Z,2.20
2023-03-29T15:08:21.025Z,1.80
2023-03-29T15:10:24.180Z,2.15
2023-03-29T15:12:30.800Z,2.92
2023-03-29T15:14:34.955Z,2.88
2023-03-29T15:16:40.410Z,2.20
2023-03-29T15:18:44.612Z,2.47
2023-03-29T15:20:51.325Z,2.47
2023-03-29T15:22:57.735Z,2.50
2023-03-29T15:25:00.879Z,2.60
2023-03-29T15:27:06.917Z,2.30
2023-03-29T15:29:13.953Z,2.33
2023-03-29T15:31:19.970Z,2.55
2023-03-29T15:33:24.885Z,2.60
2023-03-29T15:35:28.526Z,1.85
2023-03-29T15:37:32.881Z,2.67
2023-03-29T15:39:36.053Z,2.58
2023-03-29T15:41:39.010Z,2.03
2023-03-29T15:43:42.315Z,2.45
2023-03-29T15:45:47.728Z,2.13
2023-03-29T15:47:50.963Z,2.35
2023-03-29T15:49:53.945Z,2.20
2023-03-29T15:51:58.705Z,2.85
2023-03-29T15:54:03.155Z,2.50
2023-03-29T15:56:10.126Z,2.03
2023-03-29T15:58:15.746Z,2.15
2023-03-29T16:00:19.816Z,2.13
2023-03-29T16:02:25.005Z,2.38
2023-03-29T16:04:28.210Z,2.10
2023-03-29T16:06:31.684Z,1.80
2023-03-29T16:08:34.665Z,2.38
2023-03-29T16:10:39.194Z,1.80
2023-03-29T16:12:42.733Z,2.40
2023-03-29T16:14:45.768Z,2.30
2023-03-29T16:16:50.256Z,1.90
2023-03-29T16:18:53.243Z,1.70
2023-03-29T16:20:56.893Z,1.77
2023-03-29T16:22:59.787Z,2.40
2023-03-29T16:25:05.203Z,2.05
2023-03-29T16:27:09.557Z,2.63
2023-03-29T16:29:12.841Z,2.85
2023-03-29T16:31:15.959Z,2.40
2023-03-29T16:33:19.100Z,1.95
2023-03-29T16:35:27.148Z,1.73
2023-03-29T16:37:32.640Z,1.73
2023-03-29T16:39:36.118Z,2.08
2023-03-29T16:41:39.198Z,1.73
2023-03-29T16:43:43.530Z,1.88
2023-03-29T16:45:46.978Z,1.90
2023-03-29T16:47:50.001Z,1.73
2023-03-29T16:49:53.029Z,1.67
2023-03-29T16:51:56.157Z,1.95
2023-03-29T16:54:00.891Z,1.50
2023-03-29T16:56:04.448Z,1.58
2023-03-29T16:58:07.803Z,2.08
2023-03-29T17:00:15.901Z,2.17
2023-03-29T17:02:19.006Z,1.80
2023-03-29T17:04:22.235Z,1.48
2023-03-29T17:06:26.670Z,1.50
2023-03-29T17:08:29.793Z,1.75
2023-03-29T17:10:32.949Z,1.33
2023-03-29T17:12:36.305Z,1.40
2023-03-29T17:14:39.404Z,1.50
2023-03-29T17:16:43.743Z,1.90
2023-03-29T17:18:46.808Z,1.70
2023-03-29T17:20:52.368Z,1.80
2023-03-29T17:22:56.076Z,1.50
2023-03-29T17:24:59.044Z,1.83
2023-03-29T17:27:02.427Z,2.10
2023-03-29T17:29:05.610Z,1.70
2023-03-29T17:31:09.083Z,2.33
2023-03-29T17:33:14.430Z,1.58
2023-03-29T17:35:17.359Z,1.80
2023-03-29T17:37:20.316Z,2.78
2023-03-29T17:39:25.126Z,1.30
2023-03-29T17:41:30.394Z,1.80
2023-03-29T17:43:33.823Z,1.80
2023-03-29T17:45:36.727Z,1.50
2023-03-29T17:47:40.164Z,2.28
2023-03-29T17:49:44.475Z,1.92
2023-03-29T17:51:47.462Z,2.00
2023-03-29T17:53:52.443Z,2.28
2023-03-29T17:55:56.368Z,1.80
2023-03-29T17:57:59.491Z,1.95
2023-03-29T18:00:02.522Z,2.22
2023-03-29T18:02:08.459Z,1.75
2023-03-29T18:04:11.802Z,2.08
2023-03-29T18:06:18.145Z,1.85
2023-03-29T18:08:21.384Z,1.60
2023-03-29T18:10:24.907Z,1.92
2023-03-29T18:12:28.946Z,2.15
2023-03-29T18:14:31.955Z,2.00
2023-03-29T18:16:36.940Z,1.90
2023-03-29T18:18:41.518Z,1.80
2023-03-29T18:20:46.108Z,2.40
2023-03-29T18:22:50.574Z,2.00
2023-03-29T18:24:55.268Z,1.70
2023-03-29T18:26:58.217Z,1.73
2023-03-29T18:29:01.843Z,1.90
2023-03-29T18:31:05.799Z,2.08
2023-03-29T18:33:09.101Z,1.83
2023-03-29T18:35:12.312Z,1.90
2023-03-29T18:37:17.677Z,1.98
2023-03-29T18:39:22.032Z,1.88
2023-03-29T18:41:24.987Z,2.03
2023-03-29T18:43:28.357Z,2.17
2023-03-29T18:45:31.603Z,2.17
2023-03-29T18:47:34.530Z,1.80
2023-03-29T18:49:37.702Z,1.67
2023-03-29T18:51:42.088Z,1.70
2023-03-29T18:53:45.051Z,1.63
2023-03-29T18:55:49.755Z,1.90
2023-03-29T18:57:53.339Z,1.90
2023-03-29T18:59:56.542Z,1.77
2023-03-29T19:02:00.198Z,1.83
2023-03-29T19:04:03.287Z,1.83
2023-03-29T19:06:07.180Z,2.38
2023-03-29T19:08:10.816Z,2.05
2023-03-29T19:10:13.856Z,1.70
2023-03-29T19:12:18.270Z,2.28
2023-03-29T19:14:24.777Z,1.90
2023-03-29T19:16:27.917Z,2.22
2023-03-29T19:18:31.316Z,2.05
2023-03-29T19:20:34.752Z,2.33
2023-03-29T19:22:37.798Z,2.00
2023-03-29T19:24:41.200Z,2.13
2023-03-29T19:26:44.778Z,1.83
2023-03-29T19:28:49.309Z,2.28
2023-03-29T19:30:52.300Z,1.98
2023-03-29T19:32:55.475Z,2.03
2023-03-29T19:34:58.452Z,2.20
2023-03-29T19:37:01.516Z,2.17
2023-03-29T19:39:05.035Z,2.10
2023-03-29T19:41:08.925Z,2.28
2023-03-29T19:43:16.353Z,2.38
2023-03-29T19:45:21.672Z,2.13
2023-03-29T19:47:24.959Z,2.03
2023-03-29T19:49:27.977Z,1.92
2023-03-29T19:51:31.170Z,1.85
2023-03-29T19:53:38.261Z,2.28
2023-03-29T19:55:42.709Z,1.63
2023-03-29T19:57:45.585Z,1.92
2023-03-29T19:59:48.485Z,2.55
2023-03-29T20:01:52.829Z,2.22
2023-03-29T20:03:56.063Z,2.00
2023-03-29T20:05:59.024Z,2.22
2023-03-29T20:08:01.872Z,3.47
2023-03-29T20:10:05.270Z,2.45
2023-03-29T20:12:08.242Z,1.80
2023-03-29T20:14:11.382Z,1.80
2023-03-29T20:16:16.408Z,1.80
2023-03-29T20:18:20.991Z,2.78
2023-03-29T20:20:24.934Z,1.85
2023-03-29T20:22:30.687Z,2.30
2023-03-29T20:24:34.764Z,2.35
2023-03-29T20:26:37.787Z,1.92
2023-03-29T20:28:40.643Z,2.40
2023-03-29T20:30:43.577Z,2.28
2023-03-29T20:32:46.565Z,1.85
2023-03-29T20:34:51.073Z,1.80
2023-03-29T20:36:55.196Z,2.10
2023-03-29T20:38:59.334Z,1.88
2023-03-29T20:41:04.192Z,2.28
2023-03-29T20:43:07.671Z,2.03
2023-03-29T20:45:18.834Z,1.85
2023-03-29T20:47:22.883Z,1.60
2023-03-29T20:49:26.570Z,2.33
2023-03-29T20:51:31.878Z,2.33
2023-03-29T20:53:35.098Z,1.60
2023-03-29T20:55:39.042Z,2.22
2023-03-29T20:57:42.219Z,2.25
2023-03-29T20:59:45.697Z,2.40
2023-03-29T21:01:50.387Z,1.95
2023-03-29T21:03:53.409Z,2.05
2023-03-29T21:05:58.286Z,2.20
2023-03-29T21:08:04.333Z,2.20
2023-03-29T21:10:09.330Z,2.22
2023-03-29T21:12:12.525Z,2.00
2023-03-29T21:14:19.477Z,2.17
2023-03-29T21:16:22.815Z,1.77
2023-03-29T21:18:26.067Z,2.38
2023-03-29T21:20:29.457Z,2.10
2023-03-29T21:22:34.375Z,1.63
2023-03-29T21:24:39.334Z,1.90
2023-03-29T21:26:43.081Z,1.87
2023-03-29T21:28:45.996Z,1.83
2023-03-29T21:30:48.819Z,2.05
2023-03-29T21:32:52.432Z,1.90
2023-03-29T21:34:55.752Z,1.83
2023-03-29T21:37:00.327Z,1.70
2023-03-29T21:39:03.342Z,2.00
2023-03-29T21:41:10.928Z,1.90
2023-03-29T21:43:15.739Z,1.60
2023-03-29T21:45:19.645Z,2.17
2023-03-29T21:47:22.507Z,1.95
2023-03-29T21:49:25.368Z,2.35
2023-03-29T21:51:28.210Z,2.20
2023-03-29T21:53:31.381Z,1.95
2023-03-29T21:55:36.315Z,1.80
2023-03-29T21:57:41.151Z,1.73
2023-03-29T21:59:44.149Z,2.20
2023-03-29T22:01:47.062Z,1.60
2023-03-29T22:03:49.983Z,1.95
2023-03-29T22:06:00.515Z,1.70
2023-03-29T22:08:04.018Z,2.40
2023-03-29T22:10:07.981Z,2.08
2023-03-29T22:12:14.589Z,2.20
2023-03-29T22:14:19.438Z,1.50
2023-03-29T22:16:25.614Z,2.03
2023-03-29T22:18:30.368Z,2.45
2023-03-29T22:20:35.595Z,2.03
2023-03-29T22:22:40.004Z,1.95
2023-03-29T22:24:43.226Z,1.63
2023-03-29T22:26:46.241Z,2.15
2023-03-29T22:28:49.685Z,1.80
2023-03-29T22:30:54.037Z,2.30
2023-03-29T22:32:56.881Z,2.33
2023-03-29T22:34:59.808Z,1.80
2023-03-29T22:37:02.852Z,2.25
2023-03-29T22:39:06.594Z,1.98
2023-03-29T22:41:10.242Z,1.70
2023-03-29T22:43:13.173Z,1.92
2023-03-29T22:45:16.230Z,1.88
2023-03-29T22:47:20.520Z,1.80
2023-03-29T22:49:23.418Z,1.70
2023-03-29T22:51:27.268Z,2.20
2023-03-29T22:53:30.423Z,1.52
2023-03-29T22:55:33.339Z,1.55
2023-03-29T22:57:36.284Z,1.80
2023-03-29T22:59:39.089Z,2.57
2023-03-29T23:01:42.038Z,2.10
2023-03-29T23:03:46.518Z,1.52
2023-03-29T23:05:52.545Z,2.33
2023-03-29T23:07:55.928Z,1.83
2023-03-29T23:09:59.027Z,1.67
2023-03-29T23:12:02.226Z,1.50
2023-03-29T23:14:05.053Z,1.35
2023-03-29T23:16:08.547Z,2.07
2023-03-29T23:18:13.073Z,1.90
2023-03-29T23:20:17.594Z,2.10
2023-03-29T23:22:20.452Z,1.88
2023-03-29T23:24:23.448Z,1.52
2023-03-29T23:26:27.771Z,1.75
2023-03-29T23:28:31.694Z,1.92
2023-03-29T23:30:35.878Z,1.85
2023-03-29T23:32:39.055Z,2.08
2023-03-29T23:34:42.037Z,1.92
2023-03-29T23:36:46.847Z,1.70
2023-03-29T23:38:50.238Z,2.05
2023-03-29T23:40:54.515Z,2.20
2023-03-29T23:42:59.644Z,1.63
2023-03-29T23:45:02.773Z,1.90
2023-03-29T23:47:06.057Z,2.17
2023-03-29T23:49:09.943Z,2.00
2023-03-29T23:51:13.032Z,2.13
2023-03-29T23:53:17.616Z,2.03
2023-03-29T23:56:07.713Z,1.60
2023-03-29T23:58:12.082Z,1.73
